createdAt,value
2023-01-30T00:00:58.574Z,100778.22
2023-01-30T00:03:26.394Z,100772.13
2023-01-30T00:05:54.643Z,100772.47
2023-01-30T00:08:22.346Z,100767.81
2023-01-30T00:10:50.221Z,100754.69
2023-01-30T00:13:18.169Z,100752.41
2023-01-30T00:15:48.586Z,100743.03
2023-01-30T00:18:16.165Z,100748.63
2023-01-30T00:20:43.725Z,100751.91
2023-01-30T00:23:11.352Z,100751.91
2023-01-30T00:25:38.995Z,100755.69
2023-01-30T00:28:06.563Z,100760.53
2023-01-30T00:30:34.489Z,100773.97
2023-01-30T00:33:03.437Z,100795.69
2023-01-30T00:35:31.083Z,100800.50
2023-01-30T00:37:59.788Z,100814.41
2023-01-30T00:40:29.303Z,100814.16
2023-01-30T00:43:15.088Z,100825.28
2023-01-30T00:46:03.590Z,100839.94
2023-01-30T00:48:32.863Z,100834.41
2023-01-30T00:51:01.136Z,100833.13
2023-01-30T00:53:28.742Z,100826.31
2023-01-30T00:55:57.125Z,100825.03
2023-01-30T00:58:25.470Z,100822.75
2023-01-30T01:00:53.466Z,100814.41
2023-01-30T01:03:21.139Z,100831.38
2023-01-30T01:05:50.215Z,100831.97
2023-01-30T01:08:18.042Z,100830.34
2023-01-30T01:10:45.605Z,100842.97
2023-01-30T01:13:13.152Z,100835.53
2023-01-30T01:15:41.071Z,100841.09
2023-01-30T01:18:08.618Z,100841.22
2023-01-30T01:20:36.529Z,100851.84
2023-01-30T01:23:05.402Z,100849.69
2023-01-30T01:25:32.956Z,100850.34
2023-01-30T01:28:06.470Z,100856.91
2023-01-30T01:30:34.063Z,100837.59
2023-01-30T01:33:01.708Z,100835.41
2023-01-30T01:35:29.317Z,100828.34
2023-01-30T01:37:57.112Z,100821.50
2023-01-30T01:40:43.555Z,100819.25
2023-01-30T01:43:17.841Z,100828.84
2023-01-30T01:45:49.592Z,100812.41
2023-01-30T01:48:23.841Z,100785.59
2023-01-30T01:50:56.207Z,100791.91
2023-01-30T01:53:29.185Z,100782.06
2023-01-30T01:56:00.760Z,100773.72
2023-01-30T01:58:32.386Z,100768.03
2023-01-30T02:01:01.012Z,100768.44
2023-01-30T02:03:31.828Z,100766.63
2023-01-30T02:06:03.583Z,100763.59
2023-01-30T02:08:35.735Z,100762.22
2023-01-30T02:11:10.525Z,100762.22
2023-01-30T02:13:38.647Z,100749.94
2023-01-30T02:16:08.515Z,100724.66
2023-01-30T02:18:40.612Z,100720.47
2023-01-30T02:21:37.949Z,100716.38
2023-01-30T02:24:26.811Z,100722.81
2023-01-30T02:27:09.013Z,100713.25
2023-01-30T02:30:06.543Z,100721.31
2023-01-30T02:32:45.959Z,100721.53
2023-01-30T02:35:25.446Z,100711.28
2023-01-30T02:38:10.536Z,100702.50
2023-01-30T02:40:46.202Z,100685.81
2023-01-30T02:47:46.625Z,100635.19
2023-01-30T02:50:20.183Z,100619.25
2023-01-30T02:52:48.580Z,100599.75
2023-01-30T02:55:22.516Z,100597.34
2023-01-30T02:57:50.321Z,100594.69
2023-01-30T03:00:23.951Z,100607.28
2023-01-30T03:03:13.056Z,100608.19
2023-01-30T03:05:54.565Z,100588.13
2023-01-30T03:08:30.222Z,100570.78
2023-01-30T03:11:02.330Z,100560.78
2023-01-30T03:13:42.072Z,100535.78
2023-01-30T03:16:13.700Z,100545.38
2023-01-30T03:18:43.601Z,100551.91
2023-01-30T03:21:12.414Z,100551.91
2023-01-30T03:23:39.988Z,100565.56
2023-01-30T03:26:15.135Z,100578.31
2023-01-30T03:28:43.099Z,100596.72
2023-01-30T03:31:11.288Z,100586.47
2023-01-30T03:33:38.946Z,100590.66
2023-01-30T03:36:09.682Z,100596.59
2023-01-30T03:38:37.988Z,100608.25
2023-01-30T03:41:06.689Z,100604.06
2023-01-30T03:43:35.035Z,100606.31
2023-01-30T03:46:04.639Z,100599.94
2023-01-30T03:48:32.256Z,100610.28
2023-01-30T03:51:00.215Z,100612.28
2023-01-30T03:53:29.185Z,100608.63
2023-01-30T03:55:59.146Z,100609.41
2023-01-30T03:58:31.415Z,100603.47
2023-01-30T04:01:02.152Z,100612.75
2023-01-30T04:03:29.841Z,100618.25
2023-01-30T04:05:59.838Z,100626.19
2023-01-30T04:08:29.016Z,100622.50
2023-01-30T04:10:56.848Z,100617.09
2023-01-30T04:13:24.739Z,100620.50
2023-01-30T04:15:52.743Z,100629.78
2023-01-30T04:18:26.210Z,100632.66
2023-01-30T04:21:01.101Z,100622.97
2023-01-30T04:23:38.044Z,100632.13
2023-01-30T04:26:06.109Z,100615.25
2023-01-30T04:28:37.663Z,100626.50
2023-01-30T04:31:05.868Z,100620.56
2023-01-30T04:34:05.632Z,100631.13
2023-01-30T04:36:33.357Z,100627.16
2023-01-30T04:39:02.390Z,100613.94
2023-01-30T04:41:31.721Z,100597.41
2023-01-30T04:44:01.691Z,100599.72
2023-01-30T04:46:43.511Z,100596.06
2023-01-30T04:49:14.936Z,100594.22
2023-01-30T04:51:45.673Z,100590.78
2023-01-30T04:54:14.639Z,100605.00
2023-01-30T04:56:42.516Z,100600.59
2023-01-30T04:59:10.198Z,100591.34
2023-01-30T05:01:42.961Z,100593.88
2023-01-30T05:04:10.830Z,100585.06
2023-01-30T05:06:38.583Z,100597.31
2023-01-30T05:09:07.194Z,100592.31
2023-01-30T05:11:36.554Z,100592.97
2023-01-30T05:14:04.193Z,100591.13
2023-01-30T05:16:32.056Z,100586.47
2023-01-30T05:18:59.649Z,100584.38
2023-01-30T05:21:28.746Z,100580.75
2023-01-30T05:23:57.147Z,100588.13
2023-01-30T05:26:25.362Z,100568.09
2023-01-30T05:28:55.755Z,100562.44
2023-01-30T05:31:24.051Z,100563.53
2023-01-30T05:33:52.339Z,100581.75
2023-01-30T05:36:21.682Z,100565.97
2023-01-30T05:38:49.417Z,100568.06
2023-01-30T05:41:18.364Z,100561.88
2023-01-30T05:43:50.566Z,100552.59
2023-01-30T05:46:20.326Z,100555.91
2023-01-30T05:48:47.966Z,100544.00
2023-01-30T05:51:17.473Z,100535.44
2023-01-30T05:53:45.027Z,100557.13
2023-01-30T05:56:12.686Z,100546.41
2023-01-30T05:58:40.383Z,100559.09
2023-01-30T06:01:10.441Z,100550.63
2023-01-30T06:03:41.807Z,100543.09
2023-01-30T06:06:09.863Z,100546.06
2023-01-30T06:08:37.431Z,100551.72
2023-01-30T06:11:07.221Z,100557.69
2023-01-30T06:13:34.989Z,100531.44
2023-01-30T06:16:02.900Z,100533.50
2023-01-30T06:18:30.734Z,100535.59
2023-01-30T06:20:59.963Z,100520.63
2023-01-30T06:23:27.581Z,100530.38
2023-01-30T06:25:55.692Z,100513.31
2023-01-30T06:28:25.174Z,100517.97
2023-01-30T06:30:53.352Z,100516.75
2023-01-30T06:33:21.540Z,100531.66
2023-01-30T06:35:51.333Z,100527.72
2023-01-30T06:38:20.920Z,100513.38
2023-01-30T06:40:50.249Z,100526.06
2023-01-30T06:43:18.593Z,100523.28
2023-01-30T06:45:47.155Z,100525.69
2023-01-30T06:48:14.796Z,100545.34
2023-01-30T06:50:42.346Z,100530.56
2023-01-30T06:53:10.247Z,100533.00
2023-01-30T06:55:39.430Z,100546.00
2023-01-30T06:58:08.838Z,100542.25
2023-01-30T07:00:40.168Z,100542.34
2023-01-30T07:03:11.606Z,100550.41
2023-01-30T07:05:40.115Z,100544.00
2023-01-30T07:08:07.884Z,100573.81
2023-01-30T07:10:35.883Z,100561.22
2023-01-30T07:13:05.828Z,100567.25
2023-01-30T07:15:34.245Z,100574.31
2023-01-30T07:18:01.983Z,100575.97
2023-01-30T07:20:31.120Z,100574.31
2023-01-30T07:22:58.874Z,100559.88
2023-01-30T07:25:27.809Z,100565.84
2023-01-30T07:27:56.948Z,100577.41
2023-01-30T07:30:26.728Z,100578.44
2023-01-30T07:32:55.897Z,100598.91
2023-01-30T07:35:24.488Z,100584.03
2023-01-30T07:37:52.715Z,100599.03
2023-01-30T07:40:24.097Z,100592.53
2023-01-30T07:42:58.883Z,100598.25
2023-01-30T07:45:30.975Z,100591.31
2023-01-30T07:47:58.589Z,100574.44
2023-01-30T07:50:26.150Z,100571.91
2023-01-30T07:52:53.707Z,100565.88
2023-01-30T07:55:21.430Z,100567.63
2023-01-30T07:57:49.121Z,100533.00
2023-01-30T08:00:18.274Z,100535.19
2023-01-30T08:02:47.457Z,100537.84
2023-01-30T08:05:15.249Z,100548.53
2023-01-30T08:07:42.778Z,100546.19
2023-01-30T08:10:12.157Z,100556.34
2023-01-30T08:12:40.482Z,100521.47
2023-01-30T08:15:09.305Z,100523.22
2023-01-30T08:17:37.203Z,100549.78
2023-01-30T08:20:07.294Z,100524.94
2023-01-30T08:22:34.892Z,100529.44
2023-01-30T08:25:02.510Z,100550.06
2023-01-30T08:27:30.004Z,100576.09
2023-01-30T08:29:57.603Z,100558.75
2023-01-30T08:32:25.136Z,100548.97
2023-01-30T08:34:52.797Z,100562.50
2023-01-30T08:37:21.644Z,100555.94
2023-01-30T08:39:49.232Z,100540.84
2023-01-30T08:42:16.915Z,100534.63
2023-01-30T08:44:44.540Z,100542.34
2023-01-30T08:47:12.207Z,100527.53
2023-01-30T08:49:39.776Z,100520.41
2023-01-30T08:52:07.500Z,100538.75
2023-01-30T08:54:36.470Z,100518.44
2023-01-30T08:57:04.194Z,100507.81
2023-01-30T08:59:31.774Z,100498.13
2023-01-30T09:01:59.312Z,100502.75
2023-01-30T09:04:26.841Z,100499.09
2023-01-30T09:06:54.389Z,100499.31
2023-01-30T09:09:21.925Z,100502.44
2023-01-30T09:11:50.932Z,100503.66
2023-01-30T09:14:19.724Z,100512.47
2023-01-30T09:16:48.014Z,100535.13
2023-01-30T09:19:15.626Z,100513.03
2023-01-30T09:21:43.326Z,100515.00
2023-01-30T09:24:10.869Z,100524.38
2023-01-30T09:26:40.296Z,100508.66
2023-01-30T09:29:09.245Z,100503.84
2023-01-30T09:31:36.827Z,100524.00
2023-01-30T09:34:04.798Z,100510.31
2023-01-30T09:36:32.751Z,100516.59
2023-01-30T09:39:00.397Z,100529.38
2023-01-30T09:41:43.845Z,100510.72
2023-01-30T09:44:31.050Z,100501.34
2023-01-30T09:47:07.671Z,100500.47
2023-01-30T09:49:44.896Z,100485.13
2023-01-30T09:52:24.415Z,100484.63
2023-01-30T09:54:56.089Z,100482.16
2023-01-30T09:57:25.493Z,100487.06
2023-01-30T10:00:01.907Z,100470.06
2023-01-30T10:02:49.482Z,100485.31
2023-01-30T10:05:17.295Z,100489.91
2023-01-30T10:08:01.065Z,100494.19
2023-01-30T10:10:42.193Z,100489.41
2023-01-30T10:13:26.156Z,100472.63
2023-01-30T10:16:02.619Z,100484.13
2023-01-30T10:18:53.638Z,100474.94
2023-01-30T10:21:32.711Z,100472.81
2023-01-30T10:24:18.108Z,100468.88
2023-01-30T10:26:46.701Z,100484.53
2023-01-30T10:29:19.350Z,100490.03
2023-01-30T10:31:55.800Z,100458.72
2023-01-30T10:34:28.039Z,100470.47
2023-01-30T10:37:01.530Z,100452.38
2023-01-30T10:39:40.876Z,100444.63
2023-01-30T10:42:18.003Z,100455.69
2023-01-30T10:44:45.637Z,100482.56
2023-01-30T10:47:46.632Z,100461.75
2023-01-30T10:50:18.161Z,100442.97
2023-01-30T10:52:55.226Z,100461.94
2023-01-30T10:55:37.177Z,100446.00
2023-01-30T10:58:13.401Z,100442.69
2023-01-30T11:00:44.646Z,100452.84
2023-01-30T11:03:23.652Z,100455.38
2023-01-30T11:05:52.671Z,100463.59
2023-01-30T11:08:24.124Z,100472.69
2023-01-30T11:10:52.903Z,100463.81
2023-01-30T11:13:21.991Z,100457.94
2023-01-30T11:15:53.623Z,100460.69
2023-01-30T11:19:17.191Z,100455.59
2023-01-30T11:21:21.294Z,100447.25
2023-01-30T11:23:50.935Z,100452.63
2023-01-30T11:26:26.134Z,100448.34
2023-01-30T11:28:57.168Z,100448.94
2023-01-30T11:31:40.293Z,100462.06
2023-01-30T11:34:16.293Z,100441.13
2023-01-30T11:36:46.017Z,100428.00
2023-01-30T11:39:23.098Z,100429.53
2023-01-30T11:42:04.547Z,100451.25
2023-01-30T11:44:34.629Z,100472.31
2023-01-30T11:47:04.798Z,100450.38
2023-01-30T11:51:31.804Z,100450.88
2023-01-30T11:52:29.855Z,100449.88
2023-01-30T11:55:03.177Z,100442.69
2023-01-30T11:57:30.946Z,100437.38
2023-01-30T12:00:01.801Z,100441.50
2023-01-30T12:02:39.201Z,100446.75
2023-01-30T12:05:23.013Z,100452.25
2023-01-30T12:07:52.345Z,100440.34
2023-01-30T12:10:29.773Z,100465.94
2023-01-30T12:13:01.305Z,100437.19
2023-01-30T12:15:31.495Z,100449.72
2023-01-30T12:18:06.020Z,100442.69
2023-01-30T12:20:47.629Z,100436.41
2023-01-30T12:23:19.717Z,100435.66
2023-01-30T12:25:57.831Z,100442.88
2023-01-30T12:28:36.519Z,100436.63
2023-01-30T12:31:09.395Z,100446.31
2023-01-30T12:33:37.472Z,100454.44
2023-01-30T12:36:15.870Z,100439.56
2023-01-30T12:38:57.305Z,100445.22
2023-01-30T12:41:37.202Z,100430.97
2023-01-30T12:44:31.656Z,100435.94
2023-01-30T12:47:16.222Z,100439.34
2023-01-30T12:50:06.661Z,100452.84
2023-01-30T12:52:53.995Z,100475.63
2023-01-30T12:55:30.982Z,100478.25
2023-01-30T12:58:01.594Z,100463.66
2023-01-30T13:00:41.236Z,100463.41
2023-01-30T13:03:23.351Z,100488.03
2023-01-30T13:05:55.253Z,100472.47
2023-01-30T13:08:37.227Z,100475.88
2023-01-30T13:11:22.333Z,100481.63
2023-01-30T13:13:56.127Z,100486.53
2023-01-30T13:16:33.596Z,100484.28
2023-01-30T13:19:07.980Z,100483.28
2023-01-30T13:21:42.299Z,100486.44
2023-01-30T13:24:23.721Z,100487.41
2023-01-30T13:26:53.022Z,100482.50
2023-01-30T13:29:29.383Z,100477.44
2023-01-30T13:32:00.202Z,100466.69
2023-01-30T13:34:34.508Z,100476.06
2023-01-30T13:37:06.633Z,100487.59
2023-01-30T13:39:42.082Z,100493.97
2023-01-30T13:42:18.626Z,100515.19
2023-01-30T13:44:46.854Z,100517.31
2023-01-30T13:47:25.153Z,100518.50
2023-01-30T13:50:01.470Z,100540.59
2023-01-30T13:52:34.729Z,100558.94
2023-01-30T13:55:08.107Z,100531.03
2023-01-30T13:57:48.058Z,100531.78
2023-01-30T14:00:30.993Z,100536.50
2023-01-30T14:03:25.513Z,100532.00
2023-01-30T14:06:12.879Z,100548.78
2023-01-30T14:08:50.763Z,100558.16
2023-01-30T14:11:48.679Z,100554.09
2023-01-30T14:14:27.701Z,100551.53
2023-01-30T14:16:57.211Z,100555.09
2023-01-30T14:19:36.298Z,100546.69
2023-01-30T14:22:17.408Z,100543.09
2023-01-30T14:24:45.191Z,100550.53
2023-01-30T14:27:31.976Z,100524.03
2023-01-30T14:29:59.733Z,100537.16
2023-01-30T14:32:53.145Z,100536.56
2023-01-30T14:35:26.360Z,100544.78
2023-01-30T14:38:19.347Z,100546.84
2023-01-30T14:41:07.059Z,100564.72
2023-01-30T14:43:39.453Z,100561.50
2023-01-30T14:46:12.932Z,100542.41
2023-01-30T14:48:45.009Z,100543.22
2023-01-30T14:51:22.047Z,100548.69
2023-01-30T14:53:56.017Z,100544.16
2023-01-30T14:56:40.348Z,100541.94
2023-01-30T14:59:19.508Z,100564.94
2023-01-30T15:02:07.395Z,100589.56
2023-01-30T15:04:43.801Z,100558.06
2023-01-30T15:07:16.410Z,100564.53
2023-01-30T15:09:52.991Z,100573.53
2023-01-30T15:12:38.261Z,100571.41
2023-01-30T15:15:19.535Z,100585.69
2023-01-30T15:18:07.948Z,100584.00
2023-01-30T15:20:55.643Z,100582.63
2023-01-30T15:23:51.318Z,100592.13
2023-01-30T15:26:30.193Z,100581.25
2023-01-30T15:29:16.768Z,100596.03
2023-01-30T15:31:56.066Z,100598.19
2023-01-30T15:34:24.389Z,100590.56
2023-01-30T15:36:51.931Z,100572.94
2023-01-30T15:39:21.507Z,100588.03
2023-01-30T15:41:49.651Z,100593.78
2023-01-30T15:44:33.917Z,100602.28
2023-01-30T15:47:20.577Z,100598.59
2023-01-30T15:50:01.396Z,100608.47
2023-01-30T15:52:38.108Z,100618.84
2023-01-30T15:55:07.700Z,100615.22
2023-01-30T15:57:39.295Z,100620.09
2023-01-30T16:00:13.293Z,100633.22
2023-01-30T16:02:44.321Z,100631.47
2023-01-30T16:05:17.523Z,100634.41
2023-01-30T16:07:47.087Z,100630.69
2023-01-30T16:10:17.291Z,100644.09
2023-01-30T16:12:45.331Z,100638.09
2023-01-30T16:15:26.255Z,100640.25
2023-01-30T16:18:05.406Z,100645.91
2023-01-30T16:20:59.000Z,100645.91
2023-01-30T16:23:31.332Z,100639.28
2023-01-30T16:26:00.403Z,100647.00
2023-01-30T16:28:30.569Z,100669.44
2023-01-30T16:31:00.399Z,100656.09
2023-01-30T16:33:35.643Z,100658.94
2023-01-30T16:36:04.574Z,100652.81
2023-01-30T16:38:37.479Z,100678.25
2023-01-30T16:41:05.417Z,100668.81
2023-01-30T16:43:34.374Z,100678.41
2023-01-30T16:46:37.839Z,100680.19
2023-01-30T16:49:06.863Z,100688.50
2023-01-30T16:51:34.510Z,100684.69
2023-01-30T16:54:04.572Z,100698.59
2023-01-30T16:56:35.759Z,100707.97
2023-01-30T16:59:03.981Z,100716.03
2023-01-30T17:01:42.217Z,100721.22
2023-01-30T17:04:20.555Z,100727.97
2023-01-30T17:06:55.016Z,100717.81
2023-01-30T17:09:43.564Z,100718.97
2023-01-30T17:12:37.855Z,100708.81
2023-01-30T17:15:26.990Z,100722.75
2023-01-30T17:17:54.599Z,100712.09
2023-01-30T17:20:23.971Z,100710.91
2023-01-30T17:22:53.767Z,100719.94
2023-01-30T17:25:30.822Z,100712.28
2023-01-30T17:27:58.818Z,100718.56
2023-01-30T17:30:26.636Z,100719.13
2023-01-30T17:32:54.190Z,100717.59
2023-01-30T17:35:23.341Z,100714.03
2023-01-30T17:37:59.613Z,100728.50
2023-01-30T17:40:35.295Z,100749.88
2023-01-30T17:43:02.848Z,100743.22
2023-01-30T17:45:31.063Z,100740.88
2023-01-30T17:47:58.666Z,100744.31
2023-01-30T17:50:28.482Z,100753.78
2023-01-30T17:52:56.103Z,100763.59
2023-01-30T17:55:23.753Z,100761.06
2023-01-30T17:57:51.359Z,100781.03
2023-01-30T18:00:21.539Z,100772.25
2023-01-30T18:02:49.484Z,100786.84
2023-01-30T18:05:17.117Z,100796.34
2023-01-30T18:07:46.023Z,100796.53
2023-01-30T18:10:17.882Z,100802.81
2023-01-30T18:12:46.871Z,100802.16
2023-01-30T18:15:15.909Z,100803.41
2023-01-30T18:17:47.407Z,100819.88
2023-01-30T18:20:17.579Z,100802.84
2023-01-30T18:22:47.003Z,100802.13
2023-01-30T18:25:16.031Z,100810.47
2023-01-30T18:27:44.844Z,100812.31
2023-01-30T18:30:16.894Z,100824.69
2023-01-30T18:32:52.516Z,100834.38
2023-01-30T18:35:20.755Z,100842.22
2023-01-30T18:37:50.069Z,100826.72
2023-01-30T18:40:21.612Z,100832.53
2023-01-30T18:42:49.828Z,100844.47
2023-01-30T18:45:17.580Z,100831.25
2023-01-30T18:47:45.109Z,100834.94
2023-01-30T18:50:13.054Z,100843.59
2023-01-30T18:52:58.376Z,100859.44
2023-01-30T18:55:26.123Z,100856.66
2023-01-30T18:57:53.785Z,100859.34
2023-01-30T19:00:22.380Z,100858.06
2023-01-30T19:02:53.598Z,100858.16
2023-01-30T19:05:21.741Z,100864.34
2023-01-30T19:07:49.282Z,100863.00
2023-01-30T19:10:19.246Z,100890.03
2023-01-30T19:13:04.871Z,100877.88
2023-01-30T19:15:32.463Z,100864.34
2023-01-30T19:18:00.008Z,100869.94
2023-01-30T19:20:28.366Z,100863.56
2023-01-30T19:22:56.237Z,100880.78
2023-01-30T19:25:25.154Z,100863.75
2023-01-30T19:27:54.415Z,100879.25
2023-01-30T19:30:23.213Z,100874.00
2023-01-30T19:32:53.332Z,100880.91
2023-01-30T19:35:21.298Z,100875.69
2023-01-30T19:37:49.307Z,100889.41
2023-01-30T19:40:17.897Z,100888.22
2023-01-30T19:42:47.320Z,100892.75
2023-01-30T19:45:14.897Z,100903.50
2023-01-30T19:47:42.460Z,100888.09
2023-01-30T19:50:11.405Z,100894.50
2023-01-30T19:52:40.681Z,100888.09
2023-01-30T19:55:09.180Z,100891.66
2023-01-30T19:57:36.804Z,100897.22
2023-01-30T20:00:06.921Z,100902.50
2023-01-30T20:02:34.639Z,100918.56
2023-01-30T20:05:02.512Z,100919.75
2023-01-30T20:07:30.132Z,100909.78
2023-01-30T20:09:57.731Z,100919.19
2023-01-30T20:12:25.450Z,100916.66
2023-01-30T20:14:53.065Z,100926.63
2023-01-30T20:17:21.956Z,100918.88
2023-01-30T20:19:49.679Z,100918.47
2023-01-30T20:22:17.259Z,100921.81
2023-01-30T20:24:44.808Z,100931.53
2023-01-30T20:27:12.370Z,100931.06
2023-01-30T20:29:39.877Z,100940.34
2023-01-30T20:32:07.960Z,100940.34
2023-01-30T20:34:36.873Z,100942.13
2023-01-30T20:37:04.717Z,100941.91
2023-01-30T20:39:32.358Z,100943.47
2023-01-30T20:42:00.121Z,100949.66
2023-01-30T20:44:27.762Z,100939.34
2023-01-30T20:46:56.475Z,100952.00
2023-01-30T20:49:24.653Z,100956.41
2023-01-30T20:51:55.069Z,100958.75
2023-01-30T20:54:24.105Z,100946.91
2023-01-30T20:56:54.101Z,100955.22
2023-01-30T20:59:24.124Z,100965.03
2023-01-30T21:01:52.081Z,100971.31
2023-01-30T21:04:21.244Z,100974.66
2023-01-30T21:06:48.790Z,100988.75
2023-01-30T21:09:20.077Z,100979.53
2023-01-30T21:11:48.947Z,100975.31
2023-01-30T21:14:17.479Z,100988.63
2023-01-30T21:16:46.227Z,100989.94
2023-01-30T21:19:16.403Z,100989.72
2023-01-30T21:21:50.027Z,101000.78
2023-01-30T21:24:21.158Z,100992.16
2023-01-30T21:26:49.141Z,100996.78
2023-01-30T21:29:19.162Z,101000.31
2023-01-30T21:31:47.553Z,100996.56
2023-01-30T21:34:15.481Z,101004.53
2023-01-30T21:36:43.068Z,101009.31
2023-01-30T21:39:31.615Z,100999.34
2023-01-30T21:42:19.735Z,101006.09
2023-01-30T21:44:49.799Z,101006.00
2023-01-30T21:47:17.909Z,101015.00
2023-01-30T21:49:45.475Z,101016.94
2023-01-30T21:52:13.072Z,101020.50
2023-01-30T21:54:40.664Z,101023.84
2023-01-30T21:57:09.578Z,101035.78
2023-01-30T21:59:37.589Z,101036.56
2023-01-30T22:02:05.192Z,101035.09
2023-01-30T22:04:35.696Z,101044.50
2023-01-30T22:07:06.445Z,101046.84
2023-01-30T22:09:34.380Z,101047.72
2023-01-30T22:12:01.933Z,101057.13
2023-01-30T22:14:30.924Z,101049.50
2023-01-30T22:16:58.540Z,101049.50
2023-01-30T22:19:26.155Z,101054.81
2023-01-30T22:21:53.778Z,101052.81
2023-01-30T22:24:21.591Z,101057.13
2023-01-30T22:26:49.515Z,101049.31
2023-01-30T22:29:18.027Z,101046.06
2023-01-30T22:31:46.900Z,101059.25
2023-01-30T22:34:14.425Z,101053.94
2023-01-30T22:36:42.032Z,101055.28
2023-01-30T22:39:09.599Z,101056.63
2023-01-30T22:41:37.179Z,101050.78
2023-01-30T22:44:07.230Z,101042.28
2023-01-30T22:46:36.921Z,101048.00
2023-01-30T22:49:07.681Z,101048.69
2023-01-30T22:51:38.411Z,101051.81
2023-01-30T22:54:07.828Z,101057.78
2023-01-30T22:56:38.358Z,101058.44
2023-01-30T22:59:06.718Z,101068.84
2023-01-30T23:01:36.010Z,101058.44
2023-01-30T23:04:07.125Z,101052.22
2023-01-30T23:06:36.796Z,101055.22
2023-01-30T23:09:06.302Z,101051.13
2023-01-30T23:11:36.866Z,101057.78
2023-01-30T23:14:09.982Z,101054.66
2023-01-30T23:16:39.687Z,101058.19
2023-01-30T23:19:09.362Z,101055.97
2023-01-30T23:21:39.178Z,101056.84
2023-01-30T23:24:10.359Z,101051.34
2023-01-30T23:26:40.309Z,101055.09
2023-01-30T23:29:12.983Z,101043.16
2023-01-30T23:31:41.861Z,101048.44
2023-01-30T23:34:14.216Z,101036.72
2023-01-30T23:36:41.776Z,101038.06
2023-01-30T23:39:10.969Z,101028.16
2023-01-30T23:41:38.918Z,101033.94
2023-01-30T23:44:06.874Z,101031.28
2023-01-30T23:46:36.853Z,101034.50
2023-01-30T23:49:06.778Z,101030.97
2023-01-30T23:51:37.545Z,101024.78
2023-01-30T23:54:06.593Z,101019.13
2023-01-30T23:56:36.411Z,101011.94
2023-01-30T23:59:04.453Z,101019.91
